Time;durP1;ratioP1;P1;durP2;ratioP2;P2;SDS_P1;SDS_P2;PMS_P1;PMS_P2;Temp;Humidity;BMP_temperature;BMP_pressure;BME280_temperature;BME280_humidity;BME280_pressure;Samples;Min_cycle;Max_cycle;Signal;HPM_P1;HPM_P2
2022/10/23 00:01:46;;;;;;;24.25;15.32;;;18.20;99.90;;;;;;5071722;28;20147;-74
2022/10/23 00:04:17;;;;;;;26.17;17.30;;;18.10;99.90;;;;;;5090044;28;20137;-75
2022/10/23 00:06:46;;;;;;;24.10;16.95;;;18.20;99.90;;;;;;5072602;28;20056;-75
2022/10/23 00:09:16;;;;;;;20.45;15.68;;;18.10;99.90;;;;;;5071720;28;20048;-75
2022/10/23 00:11:46;;;;;;;25.10;17.55;;;18.00;99.90;;;;;;5088653;28;20063;-79
2022/10/23 00:14:16;;;;;;;30.67;16.88;;;18.00;99.90;;;;;;5089100;28;20044;-74
2022/10/23 00:16:44;;;;;;;24.10;15.70;;;18.00;99.90;;;;;;5064210;28;20056;-78
2022/10/23 00:19:12;;;;;;;24.35;16.60;;;18.10;99.90;;;;;;5070600;28;20052;-74
2022/10/23 00:21:40;;;;;;;27.73;18.58;;;18.10;99.90;;;;;;5073626;28;20044;-74
2022/10/23 00:24:07;;;;;;;27.17;18.80;;;18.10;99.90;;;;;;5073319;28;20101;-74
2022/10/23 00:26:40;;;;;;;24.52;16.67;;;18.10;99.90;;;;;;5083658;28;20056;-75
2022/10/23 00:29:09;;;;;;;23.92;16.65;;;18.10;99.90;;;;;;5096371;28;20062;-75
2022/10/23 00:31:37;;;;;;;27.98;16.90;;;18.20;99.90;;;;;;5095847;28;20101;-75
2022/10/23 00:34:07;;;;;;;24.95;17.52;;;18.20;99.90;;;;;;5094032;28;20048;-74
2022/10/23 00:36:35;;;;;;;24.33;16.92;;;18.20;99.90;;;;;;5076881;28;20113;-74
2022/10/23 00:39:03;;;;;;;25.77;17.73;;;18.20;99.90;;;;;;5087347;28;20044;-75
2022/10/23 00:41:31;;;;;;;27.40;16.95;;;18.20;99.90;;;;;;5065496;28;20067;-79
2022/10/23 00:44:04;;;;;;;25.10;16.50;;;18.20;99.90;;;;;;5034471;28;20044;-74
2022/10/23 00:46:33;;;;;;;22.50;15.50;;;18.20;99.90;;;;;;5051011;28;20459;-75
2022/10/23 00:49:02;;;;;;;24.13;15.63;;;18.10;99.90;;;;;;5051986;28;20060;-74
2022/10/23 00:51:37;;;;;;;27.80;17.13;;;18.20;99.90;;;;;;5039314;28;20052;-73
2022/10/23 00:54:06;;;;;;;24.95;15.32;;;18.20;99.90;;;;;;5083114;28;20047;-76
2022/10/23 00:56:56;;;;;;;24.20;16.80;;;18.20;99.90;;;;;;5064150;28;20489;-75
2022/10/23 00:59:24;;;;;;;25.73;16.15;;;18.20;99.90;;;;;;5093987;28;20040;-74
2022/10/23 01:01:52;;;;;;;25.83;15.93;;;18.20;99.90;;;;;;5057569;28;20047;-74
2022/10/23 01:04:20;;;;;;;25.75;16.08;;;18.20;99.90;;;;;;5069299;28;20040;-75
2022/10/23 01:06:51;;;;;;;21.25;14.13;;;18.20;99.90;;;;;;5093465;28;20516;-73
2022/10/23 01:09:32;;;;;;;21.88;14.50;;;18.20;99.90;;;;;;5069806;28;20071;-75
2022/10/23 01:12:32;;;;;;;23.40;14.85;;;18.20;99.90;;;;;;5067324;28;20052;-73
2022/10/23 01:15:19;;;;;;;23.52;14.10;;;18.20;99.90;;;;;;5050157;28;20551;-74
2022/10/23 01:18:09;;;;;;;20.27;14.93;;;18.10;99.90;;;;;;5049992;28;20044;-74
2022/10/23 01:20:52;;;;;;;26.20;14.63;;;18.10;99.90;;;;;;5049694;28;20041;-74
2022/10/23 01:23:32;;;;;;;25.58;14.25;;;18.10;99.90;;;;;;5067834;28;20098;-74
2022/10/23 01:26:08;;;;;;;26.08;15.45;;;18.10;99.90;;;;;;5078887;28;20056;-74
2022/10/23 01:28:50;;;;;;;21.25;13.18;;;18.10;99.90;;;;;;5091388;28;20044;-76
2022/10/23 01:31:35;;;;;;;20.70;12.98;;;18.10;99.90;;;;;;5091260;28;20044;-74
2022/10/23 01:34:56;;;;;;;25.40;14.57;;;18.10;99.90;;;;;;5074950;28;20493;-74
2022/10/23 01:37:29;;;;;;;22.48;13.25;;;18.10;99.90;;;;;;5058606;28;20101;-73
2022/10/23 01:40:04;;;;;;;18.85;14.60;;;18.10;99.90;;;;;;5092953;28;20036;-74
2022/10/23 01:42:38;;;;;;;33.58;16.23;;;18.10;99.90;;;;;;5076112;28;20052;-74
2022/10/23 01:45:17;;;;;;;22.50;15.35;;;18.10;99.90;;;;;;5076710;28;20060;-73
2022/10/23 01:47:46;;;;;;;20.33;14.80;;;18.20;99.90;;;;;;5093265;28;20040;-73
2022/10/23 01:50:17;;;;;;;25.50;16.35;;;18.20;99.90;;;;;;5093008;28;20483;-73
2022/10/23 01:52:47;;;;;;;24.52;16.85;;;18.20;99.90;;;;;;5075097;28;20055;-73
2022/10/23 01:55:16;;;;;;;29.52;17.85;;;18.20;99.90;;;;;;5060017;28;20421;-73
2022/10/23 01:57:46;;;;;;;22.67;16.88;;;18.20;99.90;;;;;;5076285;28;20040;-73
2022/10/23 02:00:19;;;;;;;23.63;18.17;;;18.20;99.90;;;;;;5075566;28;20083;-72
2022/10/23 02:02:55;;;;;;;27.58;18.80;;;18.30;99.90;;;;;;5093728;28;20101;-74
2022/10/23 02:05:31;;;;;;;34.90;21.33;;;18.30;99.90;;;;;;5059153;28;20043;-73
2022/10/23 02:08:01;;;;;;;34.45;21.67;;;18.30;99.90;;;;;;5092540;28;20074;-74
2022/10/23 02:10:52;;;;;;;33.28;21.10;;;18.40;99.90;;;;;;5075424;28;20040;-72
2022/10/23 02:13:20;;;;;;;33.17;20.25;;;18.50;99.90;;;;;;5092402;28;20036;-73
2022/10/23 02:15:52;;;;;;;32.17;20.95;;;18.50;99.90;;;;;;5058068;28;20090;-73
2022/10/23 02:18:23;;;;;;;41.05;22.08;;;18.60;99.90;;;;;;5075115;28;20462;-74
2022/10/23 02:21:05;;;;;;;41.00;21.58;;;18.60;99.90;;;;;;5074737;28;20044;-74
2022/10/23 02:23:43;;;;;;;32.78;22.00;;;18.70;99.90;;;;;;5091483;28;20051;-74
2022/10/23 02:26:19;;;;;;;28.80;20.45;;;18.60;99.90;;;;;;5074671;28;20047;-74
2022/10/23 02:28:55;;;;;;;28.85;19.27;;;18.60;99.90;;;;;;5091905;28;20052;-73
2022/10/23 02:31:23;;;;;;;31.38;20.42;;;18.70;99.90;;;;;;5092395;28;20048;-73
2022/10/23 02:33:52;;;;;;;30.27;19.30;;;18.60;99.90;;;;;;5090411;28;20058;-73
2022/10/23 02:36:20;;;;;;;33.42;20.17;;;18.60;99.90;;;;;;5090572;28;20093;-75
2022/10/23 02:38:48;;;;;;;28.73;20.02;;;18.70;99.90;;;;;;5073366;28;20032;-74
2022/10/23 02:41:24;;;;;;;32.75;20.13;;;18.60;99.90;;;;;;5090716;28;20040;-74
2022/10/23 02:44:13;;;;;;;34.95;19.13;;;18.60;99.90;;;;;;5091953;28;20039;-75
2022/10/23 02:46:58;;;;;;;25.83;17.15;;;18.60;99.90;;;;;;5092104;28;20048;-74
2022/10/23 02:49:53;;;;;;;67.75;20.40;;;18.50;99.90;;;;;;5073481;28;20502;-73
2022/10/23 02:52:51;;;;;;;49.45;16.23;;;18.50;99.90;;;;;;5091528;28;20497;-75
2022/10/23 02:55:27;;;;;;;39.53;15.88;;;18.40;99.90;;;;;;5073254;28;20051;-74
2022/10/23 02:58:03;;;;;;;34.83;14.00;;;18.30;99.90;;;;;;5073905;28;20044;-73
2022/10/23 03:00:34;;;;;;;34.80;14.25;;;18.30;99.90;;;;;;5090517;28;20055;-73
2022/10/23 03:03:12;;;;;;;47.30;15.82;;;18.20;99.90;;;;;;5050312;28;20052;-74
2022/10/23 03:05:43;;;;;;;83.50;16.40;;;18.20;99.90;;;;;;5070128;28;20109;-73
2022/10/23 03:08:13;;;;;;;26.80;12.55;;;18.20;99.90;;;;;;5070456;28;20123;-74
2022/10/23 03:10:41;;;;;;;25.02;12.57;;;18.20;99.90;;;;;;5069158;28;20052;-74
2022/10/23 03:13:10;;;;;;;36.15;13.88;;;18.10;99.90;;;;;;5072936;28;20048;-73
2022/10/23 03:15:43;;;;;;;43.47;14.27;;;18.20;99.90;;;;;;5073365;28;20468;-73
2022/10/23 03:18:13;;;;;;;44.92;14.77;;;18.10;99.90;;;;;;5073707;28;20446;-74
2022/10/23 03:20:45;;;;;;;33.88;14.00;;;18.10;99.90;;;;;;5090018;28;20040;-73
2022/10/23 03:23:14;;;;;;;30.80;14.23;;;18.10;99.90;;;;;;5090028;28;20048;-74
2022/10/23 03:25:42;;;;;;;27.92;13.18;;;18.10;99.90;;;;;;5090231;28;20028;-73
2022/10/23 03:28:21;;;;;;;23.58;12.48;;;18.10;99.90;;;;;;5090089;28;20143;-73
2022/10/23 03:30:49;;;;;;;21.88;12.05;;;18.00;99.90;;;;;;5090217;28;20044;-74
2022/10/23 03:33:17;;;;;;;31.42;12.98;;;18.10;99.90;;;;;;5071867;28;20066;-74
2022/10/23 03:35:44;;;;;;;29.98;12.35;;;18.00;99.90;;;;;;5089515;28;20442;-74
2022/10/23 03:38:17;;;;;;;26.73;13.25;;;18.00;99.90;;;;;;5072321;28;20513;-74
2022/10/23 03:40:45;;;;;;;38.20;14.70;;;18.00;99.90;;;;;;5090088;28;20439;-73
2022/10/23 03:43:12;;;;;;;24.98;11.90;;;18.00;99.90;;;;;;5090195;28;20052;-73
2022/10/23 03:45:41;;;;;;;28.85;12.85;;;18.00;99.90;;;;;;5071565;28;20048;-75
2022/10/23 03:48:08;;;;;;;24.00;14.32;;;18.00;99.90;;;;;;5089620;28;20081;-73
2022/10/23 03:50:36;;;;;;;20.98;14.60;;;18.00;99.90;;;;;;5056490;28;20048;-76
2022/10/23 03:53:04;;;;;;;35.85;15.23;;;18.00;99.90;;;;;;5073345;28;20072;-73
2022/10/23 03:55:33;;;;;;;18.85;13.18;;;18.00;99.90;;;;;;5072206;28;20131;-73
2022/10/23 03:58:02;;;;;;;39.15;17.15;;;18.00;99.90;;;;;;5072968;28;20443;-74
2022/10/23 04:00:29;;;;;;;32.28;16.23;;;18.00;99.90;;;;;;5089001;28;20089;-73
2022/10/23 04:03:00;;;;;;;27.63;14.57;;;18.00;99.90;;;;;;5072638;28;20044;-73
2022/10/23 04:05:28;;;;;;;29.27;14.48;;;18.00;99.90;;;;;;5072657;28;20052;-73
2022/10/23 04:07:57;;;;;;;26.75;12.43;;;17.90;99.90;;;;;;5072907;28;20544;-74
2022/10/23 04:10:25;;;;;;;22.90;13.35;;;18.00;99.90;;;;;;5072241;28;20101;-73
2022/10/23 04:12:52;;;;;;;21.02;12.05;;;18.00;99.90;;;;;;5070771;28;20509;-73
2022/10/23 04:15:20;;;;;;;31.15;13.25;;;18.00;99.90;;;;;;5071995;28;20081;-74
2022/10/23 04:17:48;;;;;;;29.55;14.13;;;18.00;99.90;;;;;;5071167;28;20044;-73
2022/10/23 04:20:16;;;;;;;23.00;12.02;;;17.90;99.90;;;;;;5071860;28;20063;-73
2022/10/23 04:22:44;;;;;;;34.95;13.25;;;17.90;99.90;;;;;;5055060;28;20514;-73
2022/10/23 04:25:12;;;;;;;21.50;12.20;;;17.90;99.90;;;;;;5071621;28;20048;-73
2022/10/23 04:27:39;;;;;;;23.40;11.55;;;17.90;99.90;;;;;;5088975;28;20046;-73
2022/10/23 04:30:08;;;;;;;35.78;11.57;;;17.90;99.90;;;;;;5088805;28;20066;-74
2022/10/23 04:32:37;;;;;;;25.17;11.55;;;17.80;99.90;;;;;;5072294;28;20056;-74
2022/10/23 04:35:07;;;;;;;21.38;10.98;;;17.80;99.90;;;;;;5055764;28;20443;-76
2022/10/23 04:37:35;;;;;;;24.23;10.73;;;17.80;99.90;;;;;;5071733;28;20040;-74
2022/10/23 04:40:03;;;;;;;21.88;9.48;;;17.80;99.90;;;;;;5071427;28;20044;-75
2022/10/23 04:42:34;;;;;;;24.33;10.88;;;17.70;99.90;;;;;;5054618;28;20131;-73
2022/10/23 04:45:03;;;;;;;26.83;10.70;;;17.60;99.90;;;;;;5072075;28;20056;-73
2022/10/23 04:47:31;;;;;;;31.48;10.07;;;17.60;99.90;;;;;;5055120;28;20044;-73
2022/10/23 04:49:59;;;;;;;19.45;9.95;;;17.60;99.90;;;;;;5072105;28;20139;-74
2022/10/23 04:52:45;;;;;;;35.15;9.30;;;17.60;99.90;;;;;;5088647;28;20044;-75
2022/10/23 04:55:31;;;;;;;29.70;9.55;;;17.60;99.90;;;;;;5088753;28;20052;-73
2022/10/23 04:58:10;;;;;;;30.38;10.07;;;17.60;99.90;;;;;;5088663;28;20044;-74
2022/10/23 05:00:38;;;;;;;19.23;9.02;;;17.60;99.90;;;;;;5054007;28;20044;-73
2022/10/23 05:03:06;;;;;;;17.50;7.88;;;17.50;99.90;;;;;;5087105;28;20062;-72
2022/10/23 05:05:38;;;;;;;21.45;8.45;;;17.50;99.90;;;;;;5071702;28;20059;-73
2022/10/23 05:08:35;;;;;;;;;;;17.40;99.90;;;;;;5077080;28;20056;-76
2022/10/23 05:11:03;;;;;;;16.83;7.82;;;17.30;99.90;;;;;;5072141;28;19977;-73
2022/10/23 05:13:35;;;;;;;21.92;9.23;;;17.30;99.90;;;;;;5071260;28;20044;-73
2022/10/23 05:16:03;;;;;;;9.60;7.45;;;17.30;99.90;;;;;;5088412;28;20119;-73
2022/10/23 05:18:51;;;;;;;19.17;8.18;;;17.20;99.90;;;;;;5072124;28;20055;-73
2022/10/23 05:21:25;;;;;;;23.85;9.55;;;17.20;99.90;;;;;;5088996;28;20040;-73
2022/10/23 05:23:53;;;;;;;22.85;9.10;;;17.20;99.90;;;;;;5088810;28;20059;-73
2022/10/23 05:26:22;;;;;;;18.13;9.55;;;17.30;99.90;;;;;;5071369;28;20409;-74
2022/10/23 05:28:52;;;;;;;14.98;8.48;;;17.30;99.90;;;;;;5088689;28;20070;-74
2022/10/23 05:31:22;;;;;;;17.05;9.27;;;17.30;99.90;;;;;;5055472;28;20070;-73
2022/10/23 05:33:52;;;;;;;17.48;8.35;;;17.30;99.90;;;;;;5071891;28;20191;-73
2022/10/23 05:36:23;;;;;;;35.60;9.00;;;17.20;99.90;;;;;;5054419;28;20065;-73
2022/10/23 05:38:56;;;;;;;24.60;11.00;;;17.30;99.90;;;;;;5054429;28;20052;-74
2022/10/23 05:41:24;;;;;;;12.93;7.20;;;17.30;99.90;;;;;;5055090;28;20139;-74
2022/10/23 05:43:57;;;;;;;11.75;7.50;;;17.30;99.90;;;;;;5088854;28;20394;-74
2022/10/23 05:47:00;;;;;;;29.92;8.98;;;17.20;99.90;;;;;;5031000;28;20404;-73
2022/10/23 05:49:46;;;;;;;23.02;9.65;;;17.20;99.90;;;;;;5083917;28;20044;-76
2022/10/23 05:52:25;;;;;;;18.95;7.95;;;17.20;99.90;;;;;;5088847;28;20347;-73
2022/10/23 05:55:14;;;;;;;14.20;7.75;;;17.10;99.90;;;;;;5074523;28;20044;-74
2022/10/23 05:57:48;;;;;;;12.82;7.55;;;17.10;99.90;;;;;;5088141;28;20803;-73
2022/10/23 06:00:22;;;;;;;14.73;8.30;;;17.20;99.90;;;;;;5070949;28;20494;-74
2022/10/23 06:03:05;;;;;;;19.77;8.88;;;17.10;99.90;;;;;;5087113;28;20055;-73
2022/10/23 06:05:39;;;;;;;19.67;9.55;;;17.10;99.90;;;;;;5054873;28;20059;-75
2022/10/23 06:08:30;;;;;;;20.90;8.93;;;17.10;99.90;;;;;;5086368;28;20066;-73
2022/10/23 06:11:03;;;;;;;16.17;9.38;;;17.20;99.90;;;;;;5071899;28;20060;-74
2022/10/23 06:13:31;;;;;;;22.33;9.95;;;17.30;99.90;;;;;;5057697;28;20047;-73
2022/10/23 06:16:06;;;;;;;20.85;9.77;;;17.50;99.90;;;;;;5091727;28;20040;-73
2022/10/23 06:18:34;;;;;;;18.52;10.10;;;17.50;99.90;;;;;;5073999;28;20043;-73
2022/10/23 06:21:08;;;;;;;19.23;9.45;;;17.60;99.90;;;;;;5075001;28;20047;-76
2022/10/23 06:23:38;;;;;;;11.82;8.55;;;17.60;99.90;;;;;;5074358;28;20046;-74
2022/10/23 06:26:11;;;;;;;13.73;9.38;;;17.70;99.90;;;;;;5092731;28;20520;-73
2022/10/23 06:28:50;;;;;;;16.52;9.88;;;17.80;99.90;;;;;;5091700;28;20048;-72
2022/10/23 06:31:19;;;;;;;17.00;9.85;;;17.80;99.90;;;;;;5057815;28;20402;-75
2022/10/23 06:33:49;;;;;;;15.02;9.88;;;17.80;99.90;;;;;;5056702;28;20086;-73
2022/10/23 06:36:17;;;;;;;12.90;9.40;;;18.00;99.90;;;;;;5073694;28;20379;-73
2022/10/23 06:38:45;;;;;;;20.40;9.68;;;18.00;99.90;;;;;;5057684;28;20086;-74
2022/10/23 06:41:17;;;;;;;15.93;10.27;;;18.20;99.90;;;;;;5073945;28;20060;-73
2022/10/23 06:43:49;;;;;;;17.30;11.35;;;18.30;99.90;;;;;;5075393;28;20104;-74
2022/10/23 06:46:40;;;;;;;15.10;10.10;;;18.50;99.90;;;;;;5060623;28;20040;-73
2022/10/23 06:49:33;;;;;;;16.60;10.15;;;18.70;99.90;;;;;;5091640;28;20516;-73
2022/10/23 06:52:02;;;;;;;21.38;9.82;;;18.80;99.90;;;;;;5091651;28;20078;-73
2022/10/23 06:54:30;;;;;;;14.50;10.15;;;18.90;99.90;;;;;;5074574;28;20040;-73
2022/10/23 06:57:24;;;;;;;14.57;10.13;;;19.10;99.90;;;;;;5089151;28;20079;-74
2022/10/23 06:59:52;;;;;;;15.68;10.00;;;19.20;99.90;;;;;;5073622;28;20073;-74
2022/10/23 07:02:20;;;;;;;19.08;11.43;;;19.30;99.90;;;;;;5090647;28;20036;-74
2022/10/23 07:04:48;;;;;;;15.75;11.00;;;19.30;99.90;;;;;;5073962;28;20044;-74
2022/10/23 07:07:18;;;;;;;14.43;9.95;;;19.40;99.90;;;;;;5074437;28;20094;-74
2022/10/23 07:09:48;;;;;;;17.02;9.73;;;19.40;99.90;;;;;;5090274;28;20059;-77
2022/10/23 07:12:36;;;;;;;14.93;10.15;;;19.60;99.90;;;;;;5083049;28;20059;-73
2022/10/23 07:15:27;;;;;;;14.63;9.27;;;19.90;99.90;;;;;;5064862;28;20044;-74
2022/10/23 07:17:55;;;;;;;12.55;9.05;;;20.20;99.90;;;;;;5063631;28;20626;-74
2022/10/23 07:20:25;;;;;;;10.02;8.88;;;20.20;99.90;;;;;;5090014;28;20126;-75
2022/10/23 07:22:54;;;;;;;17.05;9.50;;;20.40;99.90;;;;;;5086898;28;20048;-75
2022/10/23 07:25:27;;;;;;;13.43;9.55;;;20.50;99.90;;;;;;5064254;28;20132;-76
2022/10/23 07:27:55;;;;;;;17.50;10.82;;;20.50;99.90;;;;;;5046818;28;20422;-75
2022/10/23 07:30:25;;;;;;;13.40;10.05;;;20.60;99.90;;;;;;5041679;28;20063;-75
2022/10/23 07:32:55;;;;;;;17.35;11.60;;;20.50;99.90;;;;;;5086919;28;20182;-75
2022/10/23 07:35:40;;;;;;;14.25;11.95;;;20.50;99.90;;;;;;5069116;28;20037;-76
2022/10/23 07:38:17;;;;;;;18.63;10.68;;;20.70;99.90;;;;;;5058426;28;20040;-75
2022/10/23 07:40:50;;;;;;;15.75;10.27;;;20.90;99.90;;;;;;5073070;28;20506;-75
2022/10/23 07:43:19;;;;;;;14.00;10.85;;;21.10;99.90;;;;;;5072644;28;20417;-75
2022/10/23 07:45:48;;;;;;;14.18;11.00;;;21.30;99.90;;;;;;5089061;28;20134;-75
2022/10/23 07:48:28;;;;;;;14.23;10.95;;;21.40;99.90;;;;;;5090372;28;20375;-75
2022/10/23 07:51:01;;;;;;;20.05;9.73;;;21.40;99.90;;;;;;5088902;28;20471;-75
2022/10/23 07:53:30;;;;;;;19.00;11.13;;;21.50;99.90;;;;;;5072430;28;20067;-75
2022/10/23 07:56:17;;;;;;;13.70;9.77;;;21.50;99.90;;;;;;5088837;28;20048;-75
2022/10/23 07:59:04;;;;;;;16.85;12.50;;;21.60;99.90;;;;;;5089018;28;20527;-75
2022/10/23 08:01:42;;;;;;;19.92;11.95;;;21.70;99.90;;;;;;5071425;28;20581;-75
2022/10/23 08:04:10;;;;;;;16.45;11.68;;;21.80;99.90;;;;;;5071595;28;20048;-75
2022/10/23 08:06:47;;;;;;;20.67;11.68;;;21.90;99.90;;;;;;5070865;28;20055;-76
2022/10/23 08:09:15;;;;;;;15.65;10.38;;;22.10;99.90;;;;;;5071743;28;20051;-75
2022/10/23 08:11:43;;;;;;;16.88;11.73;;;22.30;99.90;;;;;;5071636;28;20075;-75
2022/10/23 08:14:14;;;;;;;13.93;10.05;;;22.20;99.90;;;;;;5071215;28;20529;-75
2022/10/23 08:16:45;;;;;;;12.25;9.10;;;22.30;99.90;;;;;;5052334;28;20133;-75
2022/10/23 08:19:15;;;;;;;13.15;9.93;;;22.40;99.90;;;;;;5088198;28;20155;-76
2022/10/23 08:21:45;;;;;;;14.73;10.05;;;22.40;99.90;;;;;;5050725;28;20063;-76
2022/10/23 08:24:13;;;;;;;17.90;11.45;;;22.20;99.90;;;;;;5051808;28;20394;-76
2022/10/23 08:26:44;;;;;;;17.35;10.52;;;21.80;99.90;;;;;;5051413;28;20099;-76
2022/10/23 08:29:13;;;;;;;16.83;11.18;;;21.80;99.90;;;;;;5051051;28;20078;-76
2022/10/23 08:31:42;;;;;;;17.90;12.13;;;21.60;99.90;;;;;;5051082;28;20140;-75
2022/10/23 08:34:17;;;;;;;16.63;12.90;;;21.60;99.90;;;;;;5051085;28;20418;-75
2022/10/23 08:36:47;;;;;;;19.67;13.50;;;21.50;99.90;;;;;;5051378;28;20040;-76
2022/10/23 08:39:15;;;;;;;23.55;13.48;;;21.30;99.90;;;;;;5051070;28;20052;-76
2022/10/23 08:42:04;;;;;;;20.45;13.65;;;21.30;99.90;;;;;;5050589;28;20147;-76
2022/10/23 08:44:40;;;;;;;16.40;14.45;;;21.20;99.90;;;;;;5050862;28;20910;-76
2022/10/23 08:47:10;;;;;;;;;;;21.20;99.90;;;;;;5051432;28;20051;-75
2022/10/23 08:50:11;;;;;;;16.42;11.45;;;21.30;99.90;;;;;;5060400;28;19964;-74
2022/10/23 08:52:44;;;;;;;17.35;11.73;;;21.30;99.90;;;;;;5067628;28;20438;-75
2022/10/23 08:55:29;;;;;;;16.17;11.65;;;21.30;99.90;;;;;;5050981;28;20052;-74
2022/10/23 08:58:15;;;;;;;17.92;14.20;;;21.40;99.90;;;;;;5051178;28;20139;-75
2022/10/23 09:00:43;;;;;;;18.52;12.63;;;21.60;99.90;;;;;;5067327;28;20049;-75
2022/10/23 09:03:12;;;;;;;19.92;12.60;;;21.70;99.90;;;;;;5051101;28;20144;-75
2022/10/23 09:06:15;;;;;;;18.88;12.13;;;21.80;99.90;;;;;;5051254;28;20502;-74
2022/10/23 09:09:16;;;;;;;14.32;10.30;;;22.10;99.90;;;;;;5068700;28;20049;-74
2022/10/23 09:11:56;;;;;;;14.02;9.05;;;22.50;99.90;;;;;;5067407;28;20185;-76
2022/10/23 09:14:45;;;;;;;17.02;9.38;;;22.80;99.90;;;;;;5064313;28;20059;-75
2022/10/23 09:17:26;;;;;;;12.10;8.23;;;23.20;99.90;;;;;;5070693;28;20113;-76
2022/10/23 09:20:35;;;;;;;11.48;9.38;;;23.40;99.90;;;;;;5087767;28;20477;-74
2022/10/23 09:23:11;;;;;;;16.05;9.93;;;23.30;99.90;;;;;;5086156;28;20060;-75
2022/10/23 09:25:41;;;;;;;;;;;23.30;99.90;;;;;;5087623;28;20106;-76
2022/10/23 09:28:19;;;;;;;13.02;8.93;;;23.40;99.90;;;;;;5070829;28;19931;-76
2022/10/23 09:30:49;;;;;;;14.65;8.23;;;23.30;99.90;;;;;;5087651;28;20339;-75
2022/10/23 09:33:26;;;;;;;11.93;7.82;;;23.10;99.90;;;;;;5070903;28;20121;-76
2022/10/23 09:36:12;;;;;;;9.88;7.25;;;23.00;99.90;;;;;;5087566;28;20040;-75
2022/10/23 09:38:49;;;;;;;11.40;7.68;;;23.00;99.90;;;;;;5087631;28;20093;-76
2022/10/23 09:41:35;;;;;;;11.77;7.28;;;23.30;99.90;;;;;;5088618;28;20462;-75
2022/10/23 09:44:30;;;;;;;12.05;7.65;;;23.50;99.90;;;;;;5070794;28;20151;-75
2022/10/23 09:47:07;;;;;;;12.50;7.30;;;23.90;99.90;;;;;;5089159;28;20047;-75
2022/10/23 09:49:37;;;;;;;10.50;7.82;;;24.20;99.90;;;;;;5092893;28;20044;-76
2022/10/23 09:52:11;;;;;;;13.52;7.78;;;24.50;99.90;;;;;;5091484;28;20047;-74
2022/10/23 09:54:46;;;;;;;11.85;7.97;;;24.70;99.90;;;;;;5074789;28;20055;-74
2022/10/23 09:57:41;;;;;;;11.90;7.18;;;24.70;99.90;;;;;;5092157;28;20059;-76
2022/10/23 10:00:21;;;;;;;13.05;7.85;;;24.80;99.90;;;;;;5074375;28;20079;-75
2022/10/23 10:03:02;;;;;;;12.07;9.30;;;24.90;99.90;;;;;;5074210;28;20461;-75
2022/10/23 10:05:56;;;;;;;11.80;7.88;;;25.10;99.90;;;;;;5058657;28;20382;-75
2022/10/23 10:08:49;;;;;;;13.68;7.90;;;25.40;99.90;;;;;;5090892;28;20043;-74
2022/10/23 10:11:34;;;;;;;12.07;8.68;;;25.70;99.90;;;;;;5079505;28;20101;-75
2022/10/23 10:14:30;;;;;;;12.00;9.02;;;25.60;99.90;;;;;;5057219;28;20177;-75
2022/10/23 10:17:16;;;;;;;14.40;9.80;;;25.70;99.90;;;;;;5073949;28;20055;-74
2022/10/23 10:19:59;;;;;;;11.77;8.02;;;25.90;99.90;;;;;;5089496;28;20067;-75
2022/10/23 10:22:49;;;;;;;11.13;7.72;;;26.10;99.90;;;;;;5073818;28;20058;-75
2022/10/23 10:25:25;;;;;;;10.95;7.32;;;26.20;99.90;;;;;;5090366;28;20055;-74
2022/10/23 10:27:59;;;;;;;;;;;26.40;99.90;;;;;;5090325;28;20408;-76
2022/10/23 10:30:39;;;;;;;9.27;6.93;;;26.40;99.90;;;;;;5091270;28;19947;-76
2022/10/23 10:33:47;;;;;;;11.88;7.57;;;26.50;99.90;;;;;;5073588;28;20402;-76
2022/10/23 10:36:54;;;;;;;12.35;6.80;;;26.30;99.90;;;;;;5061308;28;20048;-75
2022/10/23 10:39:39;;;;;;;10.15;6.80;;;26.30;99.90;;;;;;5057135;28;20480;-76
2022/10/23 10:42:26;;;;;;;11.60;7.35;;;26.50;99.90;;;;;;5073249;28;20051;-75
2022/10/23 10:45:29;;;;;;;12.25;7.25;;;26.50;99.90;;;;;;5091608;28;20091;-75
2022/10/23 10:48:08;;;;;;;10.80;7.55;;;26.60;99.90;;;;;;5073393;28;20044;-76
2022/10/23 10:51:01;;;;;;;9.75;7.10;;;26.80;99.90;;;;;;5090059;28;20490;-76
2022/10/23 10:53:59;;;;;;;9.55;7.57;;;26.80;99.90;;;;;;5089912;28;20522;-75
2022/10/23 10:56:33;;;;;;;9.05;6.07;;;26.80;99.90;;;;;;5089659;28;20108;-76
2022/10/23 10:59:10;;;;;;;11.40;8.35;;;26.70;99.90;;;;;;5089057;28;20111;-76
2022/10/23 11:01:46;;;;;;;10.93;7.22;;;26.70;99.90;;;;;;5091006;28;20040;-76
2022/10/23 11:04:33;;;;;;;11.85;6.93;;;26.70;99.90;;;;;;5090072;28;20829;-76
2022/10/23 11:07:11;;;;;;;10.43;7.60;;;26.80;99.90;;;;;;5088471;28;20043;-76
2022/10/23 11:09:40;;;;;;;9.15;7.15;;;26.60;99.90;;;;;;5072793;28;20044;-76
2022/10/23 11:12:25;;;;;;;13.50;7.50;;;26.60;99.90;;;;;;5072587;28;20233;-76
2022/10/23 11:14:54;;;;;;;11.10;6.40;;;26.70;99.90;;;;;;5072882;28;20123;-76
2022/10/23 11:17:29;;;;;;;12.65;7.60;;;26.80;99.90;;;;;;5089588;28;20101;-75
2022/10/23 11:20:00;;;;;;;10.15;6.85;;;26.90;99.90;;;;;;5072621;28;20139;-75
2022/10/23 11:22:36;;;;;;;9.18;6.90;;;26.80;99.90;;;;;;5056007;28;20060;-77
2022/10/23 11:25:19;;;;;;;13.35;8.32;;;26.60;99.90;;;;;;5085769;28;20113;-75
2022/10/23 11:28:11;;;;;;;7.88;5.80;;;26.80;99.90;;;;;;5090365;28;20768;-76
2022/10/23 11:30:47;;;;;;;10.07;7.63;;;26.80;99.90;;;;;;5089223;28;20134;-75
2022/10/23 11:33:43;;;;;;;10.63;7.20;;;26.70;99.90;;;;;;5072416;28;20222;-75
2022/10/23 11:36:40;;;;;;;11.85;7.65;;;26.30;99.90;;;;;;5087757;28;20048;-75
2022/10/23 11:39:29;;;;;;;15.00;7.88;;;26.20;99.90;;;;;;5073252;28;20055;-75
2022/10/23 11:42:04;;;;;;;10.05;6.60;;;26.30;99.90;;;;;;5072146;28;20440;-75
2022/10/23 11:44:44;;;;;;;9.95;6.60;;;26.30;99.90;;;;;;5089283;28;20151;-76
2022/10/23 11:47:36;;;;;;;9.65;6.43;;;26.50;99.90;;;;;;5071447;28;20055;-76
2022/10/23 11:50:08;;;;;;;8.73;6.82;;;26.60;99.90;;;;;;5055541;28;20052;-76
2022/10/23 11:52:53;;;;;;;8.23;6.60;;;26.70;99.90;;;;;;5071475;28;20082;-75
2022/10/23 11:55:30;;;;;;;12.40;6.60;;;26.50;99.90;;;;;;5056320;28;20139;-77
2022/10/23 11:58:16;;;;;;;10.85;7.25;;;26.50;99.90;;;;;;5089384;28;20048;-75
2022/10/23 12:01:18;;;;;;;12.70;8.32;;;26.40;99.90;;;;;;5085416;28;20036;-75
2022/10/23 12:04:14;;;;;;;9.55;6.85;;;26.30;99.90;;;;;;5071206;28;20182;-76
2022/10/23 12:06:41;;;;;;;9.23;6.63;;;26.40;99.90;;;;;;5061417;28;20450;-75
2022/10/23 12:09:51;;;;;;;12.50;6.63;;;26.50;99.90;;;;;;5084047;28;20109;-76
2022/10/23 12:12:32;;;;;;;13.50;6.60;;;26.50;99.90;;;;;;5000576;28;20049;-75
2022/10/23 12:15:17;;;;;;;8.55;6.13;;;26.60;99.90;;;;;;4958422;28;20147;-75
2022/10/23 12:17:47;;;;;;;8.65;6.95;;;26.50;99.90;;;;;;5065856;28;20137;-76
2022/10/23 12:21:00;;;;;;;9.48;5.60;;;26.40;99.90;;;;;;5086174;28;20048;-76
2022/10/23 12:23:55;;;;;;;8.15;6.38;;;26.50;99.90;;;;;;5005906;28;20041;-75
2022/10/23 12:26:45;;;;;;;8.73;6.57;;;26.60;99.90;;;;;;5078778;28;20336;-75
2022/10/23 12:29:41;;;;;;;8.57;6.30;;;26.60;99.90;;;;;;5067625;28;20057;-76
2022/10/23 12:32:21;;;;;;;10.95;6.45;;;26.60;99.90;;;;;;5069902;28;20032;-76
2022/10/23 12:35:10;;;;;;;9.20;6.63;;;26.60;99.90;;;;;;5071468;28;20058;-75
2022/10/23 12:37:59;;;;;;;13.25;7.60;;;26.60;99.90;;;;;;5066521;28;20403;-76
2022/10/23 12:40:29;;;;;;;12.57;7.28;;;26.50;99.90;;;;;;5081384;28;20101;-74
2022/10/23 12:42:59;;;;;;;13.13;6.82;;;26.30;99.90;;;;;;5087045;28;20125;-76
2022/10/23 12:45:35;;;;;;;10.27;6.43;;;26.20;99.90;;;;;;5071456;28;20048;-76
2022/10/23 12:48:04;;;;;;;11.18;6.43;;;26.10;99.90;;;;;;5070399;28;20047;-75
2022/10/23 12:50:33;;;;;;;15.73;7.85;;;26.10;99.90;;;;;;5087665;28;20044;-76
2022/10/23 12:53:04;;;;;;;16.60;7.55;;;26.10;99.90;;;;;;5088433;28;20032;-75
2022/10/23 12:55:57;;;;;;;10.80;6.63;;;26.10;99.90;;;;;;5088688;28;20067;-75
2022/10/23 12:58:29;;;;;;;12.32;6.63;;;26.00;99.90;;;;;;5070562;28;20056;-75
2022/10/23 13:01:03;;;;;;;9.23;6.75;;;25.80;99.90;;;;;;5070001;28;20117;-74
2022/10/23 13:03:32;;;;;;;11.25;8.43;;;25.80;99.90;;;;;;5050369;28;20056;-75
2022/10/23 13:06:01;;;;;;;12.48;6.90;;;25.70;99.90;;;;;;5071315;28;20173;-76
2022/10/23 13:08:39;;;;;;;9.55;7.05;;;25.70;99.90;;;;;;5064543;28;20533;-75
2022/10/23 13:15:58;;;;;;;12.30;6.53;;;25.70;99.90;;;;;;5059080;28;20082;-76
2022/10/23 13:18:26;;;;;;;11.15;6.82;;;25.60;99.90;;;;;;5058270;28;20044;-74
2022/10/23 13:20:57;;;;;;;11.45;6.95;;;25.50;99.90;;;;;;5079236;28;20049;-75
2022/10/23 13:23:34;;;;;;;9.25;7.55;;;25.40;99.90;;;;;;5081363;28;20059;-75
2022/10/23 13:26:24;;;;;;;11.80;6.93;;;25.20;99.90;;;;;;5065441;28;20044;-74